Terminal Aerodrome Forecast
Issued by NWS Omaha/Valley, NE

Home | Current Version | Previous Version | Text Only | Print | Product List | Glossary On
Versions: 1 2 3 4 5 6 7 8 9 10 11 12 13 14 15 16 17 18 19 20 21 22 23 24 25 26 27 28
000
FTUS43 KOAX 210836 AAA
TAFLNK
TAF AMD
KLNK 210836Z 2109/2206 01006KT 6SM BR OVC008
     FM211200 04006KT 4SM BR OVC008
     FM220000 04009KT 4SM -DZ OVC003
     FM220400 03015KT 2SM -RA OVC003=

USA.gov is the U.S. government's official web portal to all federal, state and local government web resources and services.